Time;durP1;ratioP1;P1;durP2;ratioP2;P2;SDS_P1;SDS_P2;PMS_P1;PMS_P2;Temp;Humidity;BMP_temperature;BMP_pressure;BME280_temperature;BME280_humidity;BME280_pressure;Samples;Min_cycle;Max_cycle;Signal;HPM_P1;HPM_P2
2023/04/03 00:01:32;;;;;;;;;;;;;;;12.56;41.71;98417.28;5049590;28;20298;-82
2023/04/03 00:03:58;;;;;;;;;;;;;;;11.96;43.46;98422.91;5053783;28;20363;-82
2023/04/03 00:06:24;;;;;;;;;;;;;;;13.34;39.58;98416.72;5064094;28;20410;-82
2023/04/03 00:08:51;;;;;;;;;;;;;;;12.88;41.71;98418.22;5041512;28;19929;-82
2023/04/03 00:11:17;;;;;;;;;;;;;;;11.61;44.07;98419.78;5052851;28;20385;-82
2023/04/03 00:13:43;;;;;;;;;;;;;;;13.23;40.19;98418.41;5052816;28;20316;-82
2023/04/03 00:16:10;;;;;;;;;;;;;;;13.50;39.93;98412.00;5052079;28;19964;-82
2023/04/03 00:18:36;;;;;;;;;;;;;;;11.72;44.06;98415.44;5051657;28;19921;-82
2023/04/03 00:21:03;;;;;;;;;;;;;;;14.32;37.83;98418.38;5051791;28;19955;-81
2023/04/03 00:23:29;;;;;;;;;;;;;;;13.64;39.23;98423.41;5037186;28;19927;-82
2023/04/03 00:25:55;;;;;;;;;;;;;;;12.82;41.44;98420.41;5053727;28;19921;-82
2023/04/03 00:28:21;;;;;;;;;;;;;;;15.20;35.68;98415.47;5054593;28;19971;-82
2023/04/03 00:30:50;;;;;;;;;;;;;;;13.40;38.80;98427.13;5053071;28;19967;-82
2023/04/03 00:33:17;;;;;;;;;;;;;;;14.87;35.96;98425.44;5053271;28;19925;-82
2023/04/03 00:35:43;;;;;;;;;;;;;;;16.12;34.06;98419.03;5053192;28;19932;-82
2023/04/03 00:38:09;;;;;;;;;;;;;;;17.13;31.73;98421.59;5053206;28;19971;-82
2023/04/03 00:40:37;;;;;;;;;;;;;;;16.37;32.55;98428.53;5059855;28;19923;-81
2023/04/03 00:43:10;;;;;;;;;;;;;;;16.05;33.24;98430.00;5051585;28;19925;-82
2023/04/03 00:45:41;;;;;;;;;;;;;;;15.68;33.70;98427.03;5049267;28;19923;-82
2023/04/03 00:48:09;;;;;;;;;;;;;;;15.09;35.10;98431.06;5060668;28;19920;-82
2023/04/03 00:50:38;;;;;;;;;;;;;;;16.18;32.64;98425.84;5033582;28;19921;-81
2023/04/03 00:53:05;;;;;;;;;;;;;;;16.97;31.68;98437.66;5049065;28;19925;-81
2023/04/03 00:55:32;;;;;;;;;;;;;;;17.23;31.14;98429.25;5048977;28;19921;-81
2023/04/03 00:58:00;;;;;;;;;;;;;;;17.13;31.85;98429.94;5053684;28;20300;-81
2023/04/03 01:00:26;;;;;;;;;;;;;;;15.73;33.73;98427.50;5050782;28;19929;-81
2023/04/03 01:02:52;;;;;;;;;;;;;;;15.16;34.86;98438.69;5057671;28;19925;-81
2023/04/03 01:05:20;;;;;;;;;;;;;;;15.23;35.30;98430.53;5052233;28;19925;-81
2023/04/03 01:07:46;;;;;;;;;;;;;;;13.94;37.74;98451.34;5050926;28;19921;-81
2023/04/03 01:10:14;;;;;;;;;;;;;;;13.22;38.54;98439.66;5056089;28;19931;-81
2023/04/03 01:12:41;;;;;;;;;;;;;;;11.77;41.97;98439.97;5049511;28;19925;-81
2023/04/03 01:15:08;;;;;;;;;;;;;;;11.68;42.90;98448.34;5055683;28;19980;-81
2023/04/03 01:17:40;;;;;;;;;;;;;;;12.45;40.22;98449.22;5048718;28;19924;-81
2023/04/03 01:20:18;;;;;;;;;;;;;;;11.77;42.02;98449.03;5052362;28;19971;-81
2023/04/03 01:22:50;;;;;;;;;;;;;;;13.25;38.34;98454.69;5045651;28;20014;-82
2023/04/03 01:25:16;;;;;;;;;;;;;;;12.05;41.53;98457.41;5042116;28;19921;-82
2023/04/03 01:27:42;;;;;;;;;;;;;;;11.38;42.76;98454.34;5041496;28;19967;-82
2023/04/03 01:30:08;;;;;;;;;;;;;;;12.55;40.81;98454.25;5048448;28;19925;-81
2023/04/03 01:32:34;;;;;;;;;;;;;;;11.36;43.61;98462.94;5052193;28;19921;-81
2023/04/03 01:35:00;;;;;;;;;;;;;;;10.79;44.79;98467.53;5030351;28;20285;-81
2023/04/03 01:37:26;;;;;;;;;;;;;;;10.29;46.64;98478.56;5046896;28;19983;-81
2023/04/03 01:39:52;;;;;;;;;;;;;;;10.49;45.84;98469.53;5048974;28;19925;-81
2023/04/03 01:42:18;;;;;;;;;;;;;;;11.56;43.26;98463.97;5049854;28;19920;-81
2023/04/03 01:44:45;;;;;;;;;;;;;;;12.09;41.46;98466.56;5050953;28;19929;-81
2023/04/03 01:47:11;;;;;;;;;;;;;;;11.13;43.03;98471.91;5051015;28;19943;-81
2023/04/03 01:49:37;;;;;;;;;;;;;;;11.58;43.20;98475.44;5056846;28;19928;-81
2023/04/03 01:52:03;;;;;;;;;;;;;;;13.11;39.34;98464.19;5049915;28;20432;-81
2023/04/03 01:54:29;;;;;;;;;;;;;;;14.02;37.55;98472.44;5047690;28;19921;-81
2023/04/03 01:56:55;;;;;;;;;;;;;;;12.77;40.32;98474.94;5050825;28;19982;-81
2023/04/03 01:59:21;;;;;;;;;;;;;;;13.01;39.22;98469.34;5050459;28;19924;-81
2023/04/03 02:01:47;;;;;;;;;;;;;;;12.70;39.93;98472.78;5031655;28;19925;-81
2023/04/03 02:04:13;;;;;;;;;;;;;;;14.98;35.26;98473.50;5050399;28;20036;-81
2023/04/03 02:06:40;;;;;;;;;;;;;;;12.01;40.78;98472.19;5051233;28;19921;-81
2023/04/03 02:09:06;;;;;;;;;;;;;;;13.81;37.14;98468.03;5042694;28;19991;-81
2023/04/03 02:11:32;;;;;;;;;;;;;;;15.54;33.77;98465.53;5048508;28;19921;-81
2023/04/03 02:13:58;;;;;;;;;;;;;;;14.75;35.21;98480.91;5053927;28;19982;-82
2023/04/03 02:16:24;;;;;;;;;;;;;;;14.63;35.64;98478.25;5050077;28;20400;-81
2023/04/03 02:18:50;;;;;;;;;;;;;;;16.26;32.55;98469.13;5047967;28;20007;-81
2023/04/03 02:21:16;;;;;;;;;;;;;;;14.68;34.67;98472.44;5053586;28;19952;-81
2023/04/03 02:23:42;;;;;;;;;;;;;;;14.64;35.81;98479.84;5056103;28;19933;-82
2023/04/03 02:26:10;;;;;;;;;;;;;;;16.05;32.87;98477.09;5051504;28;19924;-81
2023/04/03 02:28:36;;;;;;;;;;;;;;;17.89;29.65;98468.03;5059415;28;19956;-81
2023/04/03 02:31:03;;;;;;;;;;;;;;;16.46;31.26;98479.72;5060363;28;19921;-81
2023/04/03 02:33:29;;;;;;;;;;;;;;;17.29;29.96;98472.94;5055145;28;19932;-81
2023/04/03 02:35:56;;;;;;;;;;;;;;;17.40;29.69;98469.47;5058068;28;19927;-82
2023/04/03 02:38:22;;;;;;;;;;;;;;;17.21;30.02;98471.25;5037691;28;20295;-82
2023/04/03 02:40:49;;;;;;;;;;;;;;;16.42;31.03;98486.38;5059052;28;20372;-82
2023/04/03 02:43:15;;;;;;;;;;;;;;;15.14;34.22;98479.75;5072151;28;19940;-82
2023/04/03 02:45:41;;;;;;;;;;;;;;;14.60;34.77;98490.03;5073307;28;19940;-82
2023/04/03 02:48:07;;;;;;;;;;;;;;;13.44;37.81;98485.16;5068168;28;19921;-82
2023/04/03 02:50:33;;;;;;;;;;;;;;;15.67;33.06;98486.31;5055308;28;19970;-82
2023/04/03 02:52:59;;;;;;;;;;;;;;;14.33;35.61;98492.56;5044719;28;20296;-82
2023/04/03 02:55:25;;;;;;;;;;;;;;;16.31;32.24;98482.66;5055857;28;19917;-83
2023/04/03 02:57:51;;;;;;;;;;;;;;;17.28;30.27;98488.00;5054321;28;19923;-83
2023/04/03 03:00:18;;;;;;;;;;;;;;;14.68;35.30;98500.88;5055140;28;20328;-83
2023/04/03 03:02:44;;;;;;;;;;;;;;;14.65;34.64;98498.03;5040485;28;20383;-82
2023/04/03 03:05:10;;;;;;;;;;;;;;;13.73;37.49;98502.09;5050322;28;19932;-82
2023/04/03 03:07:36;;;;;;;;;;;;;;;13.49;38.18;98491.19;5035318;28;19924;-82
2023/04/03 03:10:02;;;;;;;;;;;;;;;14.36;35.86;98504.84;5045545;28;19917;-81
2023/04/03 03:12:28;;;;;;;;;;;;;;;15.87;32.73;98496.16;5053992;28;19920;-83
2023/04/03 03:14:54;;;;;;;;;;;;;;;16.63;31.50;98491.47;5059641;28;20273;-82
2023/04/03 03:17:20;;;;;;;;;;;;;;;14.90;34.05;98496.59;5053193;28;20054;-83
2023/04/03 03:19:46;;;;;;;;;;;;;;;13.26;37.35;98497.63;5048541;28;19968;-82
2023/04/03 03:22:12;;;;;;;;;;;;;;;11.80;41.22;98510.81;5047120;28;19971;-83
2023/04/03 03:24:39;;;;;;;;;;;;;;;12.87;38.65;98499.25;5046678;28;19920;-82
2023/04/03 03:27:05;;;;;;;;;;;;;;;12.22;40.33;98506.72;5055202;28;19913;-82
2023/04/03 03:29:31;;;;;;;;;;;;;;;14.08;36.50;98501.38;5055346;28;20388;-82
2023/04/03 03:31:57;;;;;;;;;;;;;;;12.50;39.41;98501.28;5071422;28;19921;-82
2023/04/03 03:34:23;;;;;;;;;;;;;;;10.71;44.07;98515.09;5055640;28;19925;-82
2023/04/03 03:36:49;;;;;;;;;;;;;;;11.76;41.77;98507.94;5043746;28;19920;-82
2023/04/03 03:39:15;;;;;;;;;;;;;;;12.95;38.35;98495.56;5055086;28;20284;-82
2023/04/03 03:41:41;;;;;;;;;;;;;;;14.46;35.43;98502.38;5073897;28;19920;-82
2023/04/03 03:44:07;;;;;;;;;;;;;;;14.94;34.56;98508.53;5068176;28;19920;-82
2023/04/03 03:46:33;;;;;;;;;;;;;;;14.47;35.64;98497.63;5055226;28;19917;-82
2023/04/03 03:48:59;;;;;;;;;;;;;;;12.67;39.07;98514.78;5064419;28;19935;-82
2023/04/03 03:51:25;;;;;;;;;;;;;;;13.54;37.17;98512.19;5054789;28;19921;-82
2023/04/03 03:53:51;;;;;;;;;;;;;;;13.44;37.41;98518.25;5065702;28;19921;-82
2023/04/03 03:56:17;;;;;;;;;;;;;;;14.36;34.94;98518.66;5054901;28;20376;-82
2023/04/03 03:58:43;;;;;;;;;;;;;;;11.77;41.51;98517.00;5053707;28;19931;-83
2023/04/03 04:01:09;;;;;;;;;;;;;;;13.07;38.16;98520.34;5050908;28;19929;-82
2023/04/03 04:03:36;;;;;;;;;;;;;;;13.45;37.08;98523.41;5050635;28;19933;-82
2023/04/03 04:06:02;;;;;;;;;;;;;;;14.18;35.91;98518.22;5046759;28;19921;-82
2023/04/03 04:08:29;;;;;;;;;;;;;;;15.70;32.73;98527.91;5049381;28;19928;-82
2023/04/03 04:10:55;;;;;;;;;;;;;;;16.20;31.82;98520.47;5050300;28;19924;-82
2023/04/03 04:13:21;;;;;;;;;;;;;;;15.41;33.87;98541.50;5042534;28;20340;-83
2023/04/03 04:15:47;;;;;;;;;;;;;;;15.34;32.59;98516.47;5054544;28;19917;-84
2023/04/03 04:18:13;;;;;;;;;;;;;;;13.55;36.60;98533.13;5049728;28;20071;-83
2023/04/03 04:20:39;;;;;;;;;;;;;;;12.93;38.85;98530.91;5053968;28;19943;-83
2023/04/03 04:23:05;;;;;;;;;;;;;;;13.32;36.39;98532.09;5050185;28;19920;-84
2023/04/03 04:25:31;;;;;;;;;;;;;;;11.89;39.98;98532.72;5049276;28;20019;-84
2023/04/03 04:27:57;;;;;;;;;;;;;;;12.87;37.96;98541.38;5046593;28;20021;-84
2023/04/03 04:30:23;;;;;;;;;;;;;;;12.69;39.21;98540.06;5047008;28;20047;-82
2023/04/03 04:32:49;;;;;;;;;;;;;;;12.38;39.60;98539.84;5049778;28;19921;-83
2023/04/03 04:35:15;;;;;;;;;;;;;;;14.17;35.72;98538.69;5041095;28;19931;-83
2023/04/03 04:37:41;;;;;;;;;;;;;;;14.77;34.14;98536.59;5049835;28;20377;-83
2023/04/03 04:40:07;;;;;;;;;;;;;;;14.47;34.62;98539.06;5044953;28;19927;-83
2023/04/03 04:42:33;;;;;;;;;;;;;;;15.53;32.69;98536.66;5051898;28;19932;-84
2023/04/03 04:45:00;;;;;;;;;;;;;;;16.62;30.77;98531.47;5048841;28;20323;-83
2023/04/03 04:47:27;;;;;;;;;;;;;;;14.97;33.55;98541.78;5064089;28;19920;-84
2023/04/03 04:49:53;;;;;;;;;;;;;;;13.39;36.78;98549.63;5049580;28;19921;-83
2023/04/03 04:52:19;;;;;;;;;;;;;;;15.38;33.22;98548.56;5046205;28;20292;-84
2023/04/03 04:54:45;;;;;;;;;;;;;;;13.72;36.38;98557.63;5048784;28;20043;-84
2023/04/03 04:57:11;;;;;;;;;;;;;;;11.85;39.22;98559.31;5049331;28;20374;-84
2023/04/03 04:59:37;;;;;;;;;;;;;;;11.32;41.22;98568.41;5044669;28;20366;-82
2023/04/03 05:02:04;;;;;;;;;;;;;;;11.81;40.42;98561.91;5044298;28;19943;-82
2023/04/03 05:04:30;;;;;;;;;;;;;;;10.76;42.22;98575.31;5053610;28;19940;-81
2023/04/03 05:06:56;;;;;;;;;;;;;;;10.99;42.65;98568.34;5048295;28;20387;-82
2023/04/03 05:09:22;;;;;;;;;;;;;;;10.78;43.32;98579.28;5053263;28;20368;-82
2023/04/03 05:11:48;;;;;;;;;;;;;;;11.19;42.56;98573.03;5055019;28;19962;-82
2023/04/03 05:14:14;;;;;;;;;;;;;;;11.22;41.47;98580.59;5073370;28;19916;-82
2023/04/03 05:16:40;;;;;;;;;;;;;;;11.40;42.10;98579.31;5073394;28;20007;-82
2023/04/03 05:19:06;;;;;;;;;;;;;;;12.53;37.93;98574.16;5063578;28;19920;-82
2023/04/03 05:21:32;;;;;;;;;;;;;;;13.00;37.09;98575.22;5053390;28;19921;-82
2023/04/03 05:24:02;;;;;;;;;;;;;;;11.45;40.16;98581.84;5052081;28;19920;-81
2023/04/03 05:26:29;;;;;;;;;;;;;;;11.84;39.76;98577.75;5053286;28;20011;-82
2023/04/03 05:28:55;;;;;;;;;;;;;;;10.73;43.40;98586.94;5055573;28;20489;-82
2023/04/03 05:31:22;;;;;;;;;;;;;;;11.06;42.45;98587.84;5054591;28;19943;-82
2023/04/03 05:33:48;;;;;;;;;;;;;;;13.53;36.78;98577.63;5051956;28;19932;-82
2023/04/03 05:36:14;;;;;;;;;;;;;;;16.11;31.57;98569.75;5034979;28;19921;-82
2023/04/03 05:38:41;;;;;;;;;;;;;;;14.75;34.64;98581.16;5053520;28;20273;-81
2023/04/03 05:41:07;;;;;;;;;;;;;;;13.14;36.56;98586.69;5052952;28;19927;-82
2023/04/03 05:43:34;;;;;;;;;;;;;;;13.47;36.98;98583.72;5051210;28;19925;-82
2023/04/03 05:46:00;;;;;;;;;;;;;;;13.52;37.16;98584.28;5057026;28;20029;-81
2023/04/03 05:48:26;;;;;;;;;;;;;;;15.29;32.92;98595.03;5054426;28;19928;-82
2023/04/03 05:50:52;;;;;;;;;;;;;;;16.02;31.07;98580.28;5055909;28;19920;-82
2023/04/03 05:53:25;;;;;;;;;;;;;;;16.71;30.60;98590.22;5077558;28;19923;-82
2023/04/03 05:55:51;;;;;;;;;;;;;;;16.39;31.11;98584.91;5077241;28;20461;-82
2023/04/03 05:58:17;;;;;;;;;;;;;;;17.24;30.38;98587.06;5077275;28;19916;-82
2023/04/03 06:00:43;;;;;;;;;;;;;;;16.89;29.12;98592.09;5077039;28;19969;-82
2023/04/03 06:03:09;;;;;;;;;;;;;;;14.98;33.03;98600.66;5062462;28;19928;-82
2023/04/03 06:05:36;;;;;;;;;;;;;;;13.36;35.56;98605.47;5062785;28;19920;-82
2023/04/03 06:08:02;;;;;;;;;;;;;;;14.90;33.53;98608.00;5060466;28;19993;-81
2023/04/03 06:10:29;;;;;;;;;;;;;;;16.11;31.37;98603.00;5057847;28;19921;-83
2023/04/03 06:12:55;;;;;;;;;;;;;;;14.19;34.39;98605.41;5056884;28;19920;-82
2023/04/03 06:15:21;;;;;;;;;;;;;;;13.37;36.43;98611.81;5056599;28;20005;-82
2023/04/03 06:17:48;;;;;;;;;;;;;;;15.06;32.86;98621.78;5055248;28;20426;-82
2023/04/03 06:20:14;;;;;;;;;;;;;;;14.16;33.63;98619.13;5061880;28;20276;-83
2023/04/03 06:22:41;;;;;;;;;;;;;;;13.72;34.66;98624.63;5076597;28;20065;-82
2023/04/03 06:25:09;;;;;;;;;;;;;;;12.51;37.00;98626.81;5076742;28;19923;-83
2023/04/03 06:27:36;;;;;;;;;;;;;;;12.01;39.39;98629.84;5076097;28;20451;-82
2023/04/03 06:30:03;;;;;;;;;;;;;;;11.35;39.65;98639.97;5058035;28;19928;-82
2023/04/03 06:32:29;;;;;;;;;;;;;;;11.83;38.98;98628.41;5056274;28;19921;-83
2023/04/03 06:34:55;;;;;;;;;;;;;;;13.24;36.36;98637.78;5056537;28;19921;-83
2023/04/03 06:37:22;;;;;;;;;;;;;;;12.87;36.49;98642.53;5062897;28;19969;-83
2023/04/03 06:39:48;;;;;;;;;;;;;;;12.78;36.28;98650.91;5076526;28;20437;-83
2023/04/03 06:42:15;;;;;;;;;;;;;;;11.64;40.00;98644.59;5054687;28;19924;-83
2023/04/03 06:44:41;;;;;;;;;;;;;;;12.66;36.46;98652.84;5055390;28;20308;-84
2023/04/03 06:47:09;;;;;;;;;;;;;;;11.98;39.43;98657.22;5056230;28;19916;-82
2023/04/03 06:49:36;;;;;;;;;;;;;;;13.33;35.24;98660.50;5036065;28;19924;-83
2023/04/03 06:52:03;;;;;;;;;;;;;;;13.76;34.39;98658.69;5046132;28;19921;-83
2023/04/03 06:54:29;;;;;;;;;;;;;;;11.42;40.12;98658.66;5075356;28;19917;-83
2023/04/03 06:56:55;;;;;;;;;;;;;;;12.19;38.34;98664.28;5063900;28;19928;-83
2023/04/03 06:59:21;;;;;;;;;;;;;;;13.97;35.17;98658.47;5054758;28;20446;-83
2023/04/03 07:01:48;;;;;;;;;;;;;;;13.97;34.50;98658.47;5055756;28;19921;-83
2023/04/03 07:04:15;;;;;;;;;;;;;;;13.48;36.19;98659.81;5055288;28;19924;-83
2023/04/03 07:06:42;;;;;;;;;;;;;;;12.40;37.10;98667.75;5066072;28;19960;-83
2023/04/03 07:09:09;;;;;;;;;;;;;;;13.32;36.46;98673.53;5069224;28;19928;-83
2023/04/03 07:11:36;;;;;;;;;;;;;;;11.59;38.41;98686.03;5062963;28;19916;-83
2023/04/03 07:14:02;;;;;;;;;;;;;;;12.52;37.73;98663.41;5075649;28;19958;-83
2023/04/03 07:16:30;;;;;;;;;;;;;;;12.57;35.74;98672.25;5069189;28;19920;-84
2023/04/03 07:18:57;;;;;;;;;;;;;;;11.08;38.39;98684.47;5039421;28;19913;-83
2023/04/03 07:21:23;;;;;;;;;;;;;;;14.26;32.84;98671.09;5049914;28;19932;-83
2023/04/03 07:23:49;;;;;;;;;;;;;;;15.58;30.15;98682.25;5055889;28;19967;-83
2023/04/03 07:26:15;;;;;;;;;;;;;;;16.83;28.49;98674.00;5056487;28;20289;-84
2023/04/03 07:28:43;;;;;;;;;;;;;;;15.95;32.01;98690.91;5063841;28;19928;-84
2023/04/03 07:31:13;;;;;;;;;;;;;;;14.05;33.15;98689.84;5075295;28;19925;-84
2023/04/03 07:33:39;;;;;;;;;;;;;;;15.20;31.19;98685.69;5075772;28;19924;-83
2023/04/03 07:36:06;;;;;;;;;;;;;;;17.74;28.29;98680.13;5059614;28;20008;-84
2023/04/03 07:38:33;;;;;;;;;;;;;;;18.87;25.66;98684.19;5054770;28;19928;-84
2023/04/03 07:40:59;;;;;;;;;;;;;;;17.54;26.56;98680.66;5054793;28;20284;-84
2023/04/03 07:43:25;;;;;;;;;;;;;;;17.15;28.39;98694.72;5054762;28;19921;-83
2023/04/03 07:45:53;;;;;;;;;;;;;;;17.50;26.59;98694.47;5065666;28;20003;-84
2023/04/03 07:48:20;;;;;;;;;;;;;;;18.65;24.43;98695.50;5066894;28;19917;-84
2023/04/03 07:50:47;;;;;;;;;;;;;;;15.72;29.38;98697.19;5058367;28;19916;-84
2023/04/03 07:53:13;;;;;;;;;;;;;;;16.22;27.28;98703.75;5057339;28;19917;-84
2023/04/03 07:55:45;;;;;;;;;;;;;;;15.70;30.57;98701.50;5055196;28;19921;-84
2023/04/03 07:58:12;;;;;;;;;;;;;;;17.10;28.05;98694.25;5054990;28;19916;-84
2023/04/03 08:00:39;;;;;;;;;;;;;;;18.33;25.01;98693.16;5054930;28;19960;-84
2023/04/03 08:03:05;;;;;;;;;;;;;;;17.75;25.97;98694.81;5066471;28;19920;-84
2023/04/03 08:05:31;;;;;;;;;;;;;;;18.96;25.85;98695.78;5073922;28;19921;-84
2023/04/03 08:07:58;;;;;;;;;;;;;;;18.04;26.65;98701.56;5056385;28;19963;-84
2023/04/03 08:10:24;;;;;;;;;;;;;;;14.53;30.09;98706.97;5054615;28;19924;-83
2023/04/03 08:12:51;;;;;;;;;;;;;;;12.77;33.30;98711.84;5053074;28;19912;-83
2023/04/03 08:15:17;;;;;;;;;;;;;;;12.00;39.40;98720.97;5054463;28;19931;-83
2023/04/03 08:17:43;;;;;;;;;;;;;;;12.86;33.13;98709.81;5053506;28;19968;-83
2023/04/03 08:20:09;;;;;;;;;;;;;;;13.21;34.61;98710.97;5054276;28;19928;-84
2023/04/03 08:22:35;;;;;;;;;;;;;;;13.86;33.13;98723.59;5054262;28;19927;-84
2023/04/03 08:25:01;;;;;;;;;;;;;;;14.65;31.45;98716.34;5054799;28;19939;-83
2023/04/03 08:27:28;;;;;;;;;;;;;;;17.47;26.54;98709.09;5032512;28;19925;-83
2023/04/03 08:29:54;;;;;;;;;;;;;;;18.93;24.97;98706.88;5028037;28;19921;-83
2023/04/03 08:32:20;;;;;;;;;;;;;;;16.49;28.68;98722.88;5034178;28;20392;-83
2023/04/03 08:34:46;;;;;;;;;;;;;;;15.31;33.25;98721.94;5031570;28;20388;-83
2023/04/03 08:37:13;;;;;;;;;;;;;;;13.33;33.76;98726.69;5047272;28;19927;-84
2023/04/03 08:39:39;;;;;;;;;;;;;;;13.53;33.38;98734.84;5054177;28;19948;-83
2023/04/03 08:42:15;;;;;;;;;;;;;;;13.14;37.43;98738.31;5053802;28;19976;-84
2023/04/03 08:44:50;;;;;;;;;;;;;;;13.28;34.91;98735.22;5054118;28;19920;-84
2023/04/03 08:47:18;;;;;;;;;;;;;;;12.93;34.95;98738.41;5033870;28;19917;-84
2023/04/03 08:49:48;;;;;;;;;;;;;;;14.69;31.48;98733.81;4999108;28;20431;-84
2023/04/03 08:52:17;;;;;;;;;;;;;;;16.30;29.50;98735.94;5049607;28;19923;-83
2023/04/03 08:54:55;;;;;;;;;;;;;;;16.52;29.36;98735.25;5053675;28;19956;-83
2023/04/03 08:57:41;;;;;;;;;;;;;;;16.29;29.24;98734.38;5053907;28;20442;-83
2023/04/03 09:00:13;;;;;;;;;;;;;;;15.49;32.26;98737.00;5053823;28;19924;-85
2023/04/03 09:02:47;;;;;;;;;;;;;;;14.06;32.64;98738.34;5053221;28;20019;-83
2023/04/03 09:05:22;;;;;;;;;;;;;;;14.81;34.50;98742.81;5022020;28;19999;-83
2023/04/03 09:08:07;;;;;;;;;;;;;;;13.87;33.96;98744.50;5033829;28;19917;-83
2023/04/03 09:10:37;;;;;;;;;;;;;;;14.30;34.55;98741.06;5041489;28;19927;-83
2023/04/03 09:13:10;;;;;;;;;;;;;;;14.08;37.00;98747.91;5053453;28;19913;-82
2023/04/03 09:15:36;;;;;;;;;;;;;;;13.52;37.37;98746.22;5045562;28;19927;-83
2023/04/03 09:18:13;;;;;;;;;;;;;;;13.15;37.05;98739.94;5032956;28;19952;-83
2023/04/03 09:20:41;;;;;;;;;;;;;;;13.20;35.17;98749.91;5034695;28;20340;-83
2023/04/03 09:23:15;;;;;;;;;;;;;;;15.68;30.92;98743.34;5052451;28;19925;-82
2023/04/03 09:25:42;;;;;;;;;;;;;;;17.69;27.00;98735.22;5053388;28;19917;-83
2023/04/03 09:28:09;;;;;;;;;;;;;;;17.50;30.55;98744.44;5048576;28;19963;-83
2023/04/03 09:30:37;;;;;;;;;;;;;;;16.65;31.64;98755.25;5072613;28;19917;-83
2023/04/03 09:33:04;;;;;;;;;;;;;;;16.58;30.97;98769.78;5053155;28;20362;-83
2023/04/03 09:35:32;;;;;;;;;;;;;;;14.27;35.47;98770.16;5053439;28;19924;-83
2023/04/03 09:37:59;;;;;;;;;;;;;;;11.82;38.91;98777.28;5053389;28;19917;-83
2023/04/03 09:40:25;;;;;;;;;;;;;;;12.68;35.95;98783.59;5053065;28;19913;-83
2023/04/03 09:42:56;;;;;;;;;;;;;;;13.44;36.27;98777.50;5053358;28;19967;-83
2023/04/03 09:45:27;;;;;;;;;;;;;;;12.29;37.68;98778.66;5061453;28;19921;-83
2023/04/03 09:48:15;;;;;;;;;;;;;;;14.11;35.03;98776.75;5050751;28;20475;-83
2023/04/03 09:50:48;;;;;;;;;;;;;;;11.64;39.57;98787.59;5054493;28;19939;-83
2023/04/03 09:53:26;;;;;;;;;;;;;;;12.02;37.91;98788.28;5073168;28;20018;-84
2023/04/03 09:55:52;;;;;;;;;;;;;;;10.99;40.92;98804.59;5073301;28;19917;-83
2023/04/03 09:58:30;;;;;;;;;;;;;;;11.16;39.28;98801.75;5055555;28;19999;-83
2023/04/03 10:00:58;;;;;;;;;;;;;;;11.63;39.89;98800.53;5073085;28;19954;-83
2023/04/03 10:03:31;;;;;;;;;;;;;;;13.51;36.62;98805.31;5061173;28;19928;-83
2023/04/03 10:05:58;;;;;;;;;;;;;;;12.55;39.00;98812.25;5051130;28;19924;-83
2023/04/03 10:08:26;;;;;;;;;;;;;;;14.82;32.84;98807.22;5051886;28;19921;-83
2023/04/03 10:11:09;;;;;;;;;;;;;;;15.15;34.37;98810.44;5052965;28;19917;-83
2023/04/03 10:13:36;;;;;;;;;;;;;;;15.39;31.69;98810.25;5053150;28;19972;-83
2023/04/03 10:16:14;;;;;;;;;;;;;;;12.71;37.78;98817.91;5044992;28;19940;-84
2023/04/03 10:18:59;;;;;;;;;;;;;;;13.31;35.57;98817.22;5051434;28;19947;-83
2023/04/03 10:21:28;;;;;;;;;;;;;;;14.49;35.43;98811.03;5067424;28;20291;-83
2023/04/03 10:23:59;;;;;;;;;;;;;;;14.01;35.65;98816.69;5052873;28;19921;-84
2023/04/03 10:26:25;;;;;;;;;;;;;;;14.19;36.73;98815.25;5053230;28;20051;-83
2023/04/03 10:28:56;;;;;;;;;;;;;;;14.99;32.62;98807.66;5052888;28;19979;-83
2023/04/03 10:31:41;;;;;;;;;;;;;;;14.48;33.65;98814.97;5053007;28;20015;-84
2023/04/03 10:34:25;;;;;;;;;;;;;;;16.36;33.42;98809.31;5053222;28;19917;-83
2023/04/03 10:36:54;;;;;;;;;;;;;;;17.08;29.24;98813.13;5058412;28;19928;-83
2023/04/03 10:39:20;;;;;;;;;;;;;;;17.58;27.50;98810.03;5055980;28;19921;-84
2023/04/03 10:42:00;;;;;;;;;;;;;;;19.01;26.67;98808.72;5056549;28;19924;-83
2023/04/03 10:44:46;;;;;;;;;;;;;;;18.25;27.27;98804.66;5056322;28;19917;-83
2023/04/03 10:47:28;;;;;;;;;;;;;;;17.33;30.50;98806.00;5034780;28;19962;-83
2023/04/03 10:49:54;;;;;;;;;;;;;;;16.70;29.09;98811.22;5056684;28;19927;-81
2023/04/03 10:52:23;;;;;;;;;;;;;;;16.20;31.43;98805.78;5048670;28;19928;-83
2023/04/03 10:55:00;;;;;;;;;;;;;;;16.31;31.22;98815.94;5056153;28;19990;-82
2023/04/03 10:57:27;;;;;;;;;;;;;;;13.88;35.76;98809.63;5056306;28;19956;-82
2023/04/03 10:59:56;;;;;;;;;;;;;;;13.54;35.87;98815.63;5055763;28;19917;-83
2023/04/03 11:02:31;;;;;;;;;;;;;;;13.82;35.31;98811.00;5054798;28;19925;-83
2023/04/03 11:05:04;;;;;;;;;;;;;;;13.82;33.95;98825.59;5055934;28;19920;-83
2023/04/03 11:07:38;;;;;;;;;;;;;;;17.61;27.99;98798.19;5055622;28;20016;-83
2023/04/03 11:10:19;;;;;;;;;;;;;;;19.26;24.90;98805.00;5064977;28;19982;-83
2023/04/03 11:12:52;;;;;;;;;;;;;;;19.94;24.52;98800.75;5055573;28;19920;-83
2023/04/03 11:15:20;;;;;;;;;;;;;;;20.25;23.92;98805.75;5055902;28;19926;-82
2023/04/03 11:18:01;;;;;;;;;;;;;;;19.90;23.60;98802.75;5052409;28;19932;-82
2023/04/03 11:20:33;;;;;;;;;;;;;;;17.15;28.48;98816.78;5016900;28;19925;-84
2023/04/03 11:23:37;;;;;;;;;;;;;;;18.14;26.70;98804.50;5054228;28;19931;-84
2023/04/03 11:26:14;;;;;;;;;;;;;;;17.57;29.69;98814.00;4994983;28;19921;-86
2023/04/03 11:28:41;;;;;;;;;;;;;;;15.68;32.88;98809.78;4992660;28;20333;-84
2023/04/03 11:31:07;;;;;;;;;;;;;;;14.26;33.29;98822.97;5027608;28;19952;-84
2023/04/03 11:33:41;;;;;;;;;;;;;;;14.48;32.03;98826.03;5052377;28;19956;-85
2023/04/03 11:36:12;;;;;;;;;;;;;;;14.94;33.33;98818.16;5054363;28;20388;-87
2023/04/03 11:38:43;;;;;;;;;;;;;;;14.89;34.03;98821.22;5053360;28;19971;-83
2023/04/03 11:41:10;;;;;;;;;;;;;;;15.16;32.19;98821.16;5054760;28;19925;-83
2023/04/03 11:43:55;;;;;;;;;;;;;;;16.56;32.58;98817.28;5062550;28;19920;-84
2023/04/03 11:46:21;;;;;;;;;;;;;;;15.91;33.86;98818.25;5041980;28;20011;-83
2023/04/03 11:48:48;;;;;;;;;;;;;;;16.90;30.10;98809.19;5055941;28;20011;-83
2023/04/03 11:51:20;;;;;;;;;;;;;;;16.89;27.57;98815.94;5062849;28;20371;-83
2023/04/03 11:53:46;;;;;;;;;;;;;;;16.71;29.43;98818.34;5050971;28;19916;-83
2023/04/03 11:56:25;;;;;;;;;;;;;;;16.50;32.17;98810.38;5052906;28;19928;-83
2023/04/03 11:59:18;;;;;;;;;;;;;;;14.91;35.19;98807.84;5048706;28;19925;-83
2023/04/03 12:01:51;;;;;;;;;;;;;;;14.69;33.52;98798.16;5067117;28;20307;-83
2023/04/03 12:04:18;;;;;;;;;;;;;;;16.01;32.43;98803.03;5038759;28;19947;-82
2023/04/03 12:06:44;;;;;;;;;;;;;;;14.95;35.44;98797.66;5032790;28;20012;-83
2023/04/03 12:09:25;;;;;;;;;;;;;;;14.35;37.51;98805.09;5059355;28;20015;-83
2023/04/03 12:11:51;;;;;;;;;;;;;;;13.54;37.19;98815.63;5049522;28;19927;-83
2023/04/03 12:14:18;;;;;;;;;;;;;;;13.53;35.91;98803.81;5057144;28;19923;-82
2023/04/03 12:16:47;;;;;;;;;;;;;;;12.61;38.89;98802.63;5055539;28;19964;-82
2023/04/03 12:19:31;;;;;;;;;;;;;;;13.24;37.96;98812.28;5047209;28;19925;-82
2023/04/03 12:21:58;;;;;;;;;;;;;;;15.21;29.12;98803.47;5051846;28;19921;-83
2023/04/03 12:24:26;;;;;;;;;;;;;;;16.78;32.54;98796.31;5057516;28;19947;-83
2023/04/03 12:26:55;;;;;;;;;;;;;;;16.56;32.00;98799.84;5055415;28;19970;-84
2023/04/03 12:29:24;;;;;;;;;;;;;;;16.90;29.13;98798.09;5058986;28;20457;-83
2023/04/03 12:32:10;;;;;;;;;;;;;;;14.96;31.24;98799.28;5057742;28;19925;-84
2023/04/03 12:34:42;;;;;;;;;;;;;;;13.86;36.65;98806.41;5054711;28;19916;-82
2023/04/03 12:37:24;;;;;;;;;;;;;;;15.03;31.22;98794.72;5053388;28;19943;-81
2023/04/03 12:39:53;;;;;;;;;;;;;;;13.44;36.28;98800.34;5052928;28;19920;-82
2023/04/03 12:42:22;;;;;;;;;;;;;;;12.66;37.25;98804.34;5050154;28;19917;-83
2023/04/03 12:45:00;;;;;;;;;;;;;;;12.76;35.51;98801.19;5039099;28;20397;-83
2023/04/03 12:47:33;;;;;;;;;;;;;;;12.11;39.35;98810.25;5054282;28;19916;-82
2023/04/03 12:50:00;;;;;;;;;;;;;;;13.48;34.80;98805.97;5055976;28;19928;-82
2023/04/03 12:52:29;;;;;;;;;;;;;;;14.86;34.57;98799.81;5061484;28;19921;-82
2023/04/03 12:54:57;;;;;;;;;;;;;;;16.32;29.37;98800.91;5050845;28;20011;-82